sensor_id;sensor_type;location;lat;lon;timestamp;P1;durP1;ratioP1;P2;durP2;ratioP2
11588;SDS011;5850;51.360;12.362;2022-07-21T00:00:25;4.13;;;2.70;;
11588;SDS011;5850;51.360;12.362;2022-07-21T00:02:55;4.03;;;2.93;;
11588;SDS011;5850;51.360;12.362;2022-07-21T00:05:24;5.37;;;3.23;;
11588;SDS011;5850;51.360;12.362;2022-07-21T00:07:53;3.40;;;2.60;;
11588;SDS011;5850;51.360;12.362;2022-07-21T00:10:22;3.70;;;2.90;;
11588;SDS011;5850;51.360;12.362;2022-07-21T00:12:53;3.13;;;2.80;;
11588;SDS011;5850;51.360;12.362;2022-07-21T00:15:23;6.13;;;3.03;;
11588;SDS011;5850;51.360;12.362;2022-07-21T00:17:54;3.13;;;2.70;;
11588;SDS011;5850;51.360;12.362;2022-07-21T00:20:23;4.57;;;2.43;;
11588;SDS011;5850;51.360;12.362;2022-07-21T00:22:54;3.33;;;2.97;;
11588;SDS011;5850;51.360;12.362;2022-07-21T00:25:23;3.53;;;2.73;;
11588;SDS011;5850;51.360;12.362;2022-07-21T00:27:59;4.07;;;2.97;;
11588;SDS011;5850;51.360;12.362;2022-07-21T00:30:29;10.37;;;3.50;;
11588;SDS011;5850;51.360;12.362;2022-07-21T00:32:58;5.37;;;4.30;;
11588;SDS011;5850;51.360;12.362;2022-07-21T00:35:27;6.07;;;4.40;;
11588;SDS011;5850;51.360;12.362;2022-07-21T00:37:55;6.20;;;5.10;;
11588;SDS011;5850;51.360;12.362;2022-07-21T00:40:24;8.90;;;6.20;;
11588;SDS011;5850;51.360;12.362;2022-07-21T00:42:52;11.77;;;6.83;;
11588;SDS011;5850;51.360;12.362;2022-07-21T00:45:21;13.27;;;6.73;;
11588;SDS011;5850;51.360;12.362;2022-07-21T00:47:50;12.97;;;7.33;;
11588;SDS011;5850;51.360;12.362;2022-07-21T00:50:19;10.27;;;7.50;;
11588;SDS011;5850;51.360;12.362;2022-07-21T00:52:48;11.63;;;8.33;;
11588;SDS011;5850;51.360;12.362;2022-07-21T00:55:18;17.10;;;8.10;;
11588;SDS011;5850;51.360;12.362;2022-07-21T00:57:48;11.77;;;8.37;;
11588;SDS011;5850;51.360;12.362;2022-07-21T01:00:20;20.00;;;8.83;;
11588;SDS011;5850;51.360;12.362;2022-07-21T01:03:03;14.43;;;7.83;;
11588;SDS011;5850;51.360;12.362;2022-07-21T01:05:32;12.87;;;8.20;;
11588;SDS011;5850;51.360;12.362;2022-07-21T01:08:02;11.93;;;8.40;;
11588;SDS011;5850;51.360;12.362;2022-07-21T01:10:31;10.27;;;8.60;;
11588;SDS011;5850;51.360;12.362;2022-07-21T01:12:59;12.73;;;7.93;;
11588;SDS011;5850;51.360;12.362;2022-07-21T01:15:29;11.60;;;7.80;;
11588;SDS011;5850;51.360;12.362;2022-07-21T01:17:58;10.50;;;7.57;;
11588;SDS011;5850;51.360;12.362;2022-07-21T01:20:27;10.37;;;8.50;;
11588;SDS011;5850;51.360;12.362;2022-07-21T01:23:02;11.13;;;7.47;;
11588;SDS011;5850;51.360;12.362;2022-07-21T01:25:31;9.83;;;7.10;;
11588;SDS011;5850;51.360;12.362;2022-07-21T01:27:59;14.17;;;7.63;;
11588;SDS011;5850;51.360;12.362;2022-07-21T01:30:28;20.17;;;7.50;;
11588;SDS011;5850;51.360;12.362;2022-07-21T01:32:56;13.33;;;7.27;;
11588;SDS011;5850;51.360;12.362;2022-07-21T01:35:25;15.63;;;8.00;;
11588;SDS011;5850;51.360;12.362;2022-07-21T01:37:53;10.43;;;7.23;;
11588;SDS011;5850;51.360;12.362;2022-07-21T01:40:22;9.67;;;7.17;;
11588;SDS011;5850;51.360;12.362;2022-07-21T01:43:09;10.70;;;7.40;;
11588;SDS011;5850;51.360;12.362;2022-07-21T01:45:38;16.43;;;7.97;;
11588;SDS011;5850;51.360;12.362;2022-07-21T01:48:08;10.53;;;7.17;;
11588;SDS011;5850;51.360;12.362;2022-07-21T01:50:36;12.03;;;7.00;;
11588;SDS011;5850;51.360;12.362;2022-07-21T01:53:05;7.37;;;6.13;;
11588;SDS011;5850;51.360;12.362;2022-07-21T01:55:34;10.23;;;6.67;;
11588;SDS011;5850;51.360;12.362;2022-07-21T01:58:02;10.87;;;6.73;;
11588;SDS011;5850;51.360;12.362;2022-07-21T02:00:31;13.17;;;6.63;;
11588;SDS011;5850;51.360;12.362;2022-07-21T02:03:00;7.57;;;6.50;;
11588;SDS011;5850;51.360;12.362;2022-07-21T02:05:28;13.27;;;6.40;;
11588;SDS011;5850;51.360;12.362;2022-07-21T02:07:57;7.00;;;5.97;;
11588;SDS011;5850;51.360;12.362;2022-07-21T02:10:25;9.17;;;6.07;;
11588;SDS011;5850;51.360;12.362;2022-07-21T02:12:54;10.00;;;6.83;;
11588;SDS011;5850;51.360;12.362;2022-07-21T02:15:22;10.83;;;6.17;;
11588;SDS011;5850;51.360;12.362;2022-07-21T02:17:51;9.43;;;6.67;;
11588;SDS011;5850;51.360;12.362;2022-07-21T02:20:19;7.70;;;6.40;;
11588;SDS011;5850;51.360;12.362;2022-07-21T02:22:48;9.50;;;6.50;;
11588;SDS011;5850;51.360;12.362;2022-07-21T02:25:18;7.93;;;6.40;;
11588;SDS011;5850;51.360;12.362;2022-07-21T02:27:46;7.73;;;5.60;;
11588;SDS011;5850;51.360;12.362;2022-07-21T02:30:15;8.87;;;6.67;;
11588;SDS011;5850;51.360;12.362;2022-07-21T02:32:44;7.30;;;6.33;;
11588;SDS011;5850;51.360;12.362;2022-07-21T02:35:12;7.20;;;6.23;;
11588;SDS011;5850;51.360;12.362;2022-07-21T02:37:41;10.07;;;6.47;;
11588;SDS011;5850;51.360;12.362;2022-07-21T02:40:09;8.87;;;6.20;;
11588;SDS011;5850;51.360;12.362;2022-07-21T02:42:38;8.07;;;6.10;;
11588;SDS011;5850;51.360;12.362;2022-07-21T02:45:07;9.43;;;7.13;;
11588;SDS011;5850;51.360;12.362;2022-07-21T02:47:47;8.57;;;6.23;;
11588;SDS011;5850;51.360;12.362;2022-07-21T02:50:16;8.40;;;5.97;;
11588;SDS011;5850;51.360;12.362;2022-07-21T02:52:46;10.47;;;6.13;;
11588;SDS011;5850;51.360;12.362;2022-07-21T02:55:15;9.20;;;6.07;;
11588;SDS011;5850;51.360;12.362;2022-07-21T02:57:44;7.07;;;6.00;;
11588;SDS011;5850;51.360;12.362;2022-07-21T03:00:12;7.87;;;6.00;;
11588;SDS011;5850;51.360;12.362;2022-07-21T03:02:41;6.37;;;5.77;;
11588;SDS011;5850;51.360;12.362;2022-07-21T03:05:09;9.77;;;6.50;;
11588;SDS011;5850;51.360;12.362;2022-07-21T03:07:38;10.47;;;5.87;;
11588;SDS011;5850;51.360;12.362;2022-07-21T03:10:07;6.90;;;6.03;;
11588;SDS011;5850;51.360;12.362;2022-07-21T03:12:35;7.23;;;6.17;;
11588;SDS011;5850;51.360;12.362;2022-07-21T03:15:04;8.37;;;6.07;;
11588;SDS011;5850;51.360;12.362;2022-07-21T03:17:33;12.40;;;6.00;;
11588;SDS011;5850;51.360;12.362;2022-07-21T03:20:02;7.90;;;5.50;;
11588;SDS011;5850;51.360;12.362;2022-07-21T03:22:31;6.50;;;5.50;;
11588;SDS011;5850;51.360;12.362;2022-07-21T03:25:00;6.47;;;5.60;;
11588;SDS011;5850;51.360;12.362;2022-07-21T03:27:28;7.17;;;5.63;;
11588;SDS011;5850;51.360;12.362;2022-07-21T03:29:57;6.93;;;6.10;;
11588;SDS011;5850;51.360;12.362;2022-07-21T03:32:26;6.80;;;5.40;;
11588;SDS011;5850;51.360;12.362;2022-07-21T03:34:54;6.67;;;5.57;;
11588;SDS011;5850;51.360;12.362;2022-07-21T03:37:23;7.77;;;5.87;;
11588;SDS011;5850;51.360;12.362;2022-07-21T03:42:20;10.00;;;5.73;;
11588;SDS011;5850;51.360;12.362;2022-07-21T03:44:49;7.83;;;5.67;;
11588;SDS011;5850;51.360;12.362;2022-07-21T03:47:17;9.27;;;6.47;;
11588;SDS011;5850;51.360;12.362;2022-07-21T03:49:46;7.13;;;6.10;;
11588;SDS011;5850;51.360;12.362;2022-07-21T03:52:14;8.07;;;5.40;;
11588;SDS011;5850;51.360;12.362;2022-07-21T03:54:43;6.27;;;5.30;;
11588;SDS011;5850;51.360;12.362;2022-07-21T03:57:11;6.50;;;5.13;;
11588;SDS011;5850;51.360;12.362;2022-07-21T03:59:40;6.63;;;4.87;;
11588;SDS011;5850;51.360;12.362;2022-07-21T04:02:08;6.80;;;5.00;;
11588;SDS011;5850;51.360;12.362;2022-07-21T04:04:37;5.33;;;4.73;;
11588;SDS011;5850;51.360;12.362;2022-07-21T04:07:05;5.00;;;4.50;;
11588;SDS011;5850;51.360;12.362;2022-07-21T04:09:33;8.10;;;5.30;;
11588;SDS011;5850;51.360;12.362;2022-07-21T04:12:02;6.87;;;4.87;;
11588;SDS011;5850;51.360;12.362;2022-07-21T04:14:30;5.50;;;5.00;;
11588;SDS011;5850;51.360;12.362;2022-07-21T04:16:59;5.03;;;4.53;;
11588;SDS011;5850;51.360;12.362;2022-07-21T04:19:27;6.30;;;4.83;;
11588;SDS011;5850;51.360;12.362;2022-07-21T04:21:57;6.73;;;4.27;;
11588;SDS011;5850;51.360;12.362;2022-07-21T04:24:25;5.20;;;4.70;;
11588;SDS011;5850;51.360;12.362;2022-07-21T04:26:54;4.87;;;4.37;;
11588;SDS011;5850;51.360;12.362;2022-07-21T04:29:28;4.80;;;4.40;;
11588;SDS011;5850;51.360;12.362;2022-07-21T04:31:57;7.20;;;4.83;;
11588;SDS011;5850;51.360;12.362;2022-07-21T04:34:25;4.47;;;4.07;;
11588;SDS011;5850;51.360;12.362;2022-07-21T04:36:54;6.23;;;4.10;;
11588;SDS011;5850;51.360;12.362;2022-07-21T04:39:23;6.13;;;4.10;;
11588;SDS011;5850;51.360;12.362;2022-07-21T04:41:52;4.47;;;4.07;;
11588;SDS011;5850;51.360;12.362;2022-07-21T04:44:20;4.93;;;4.50;;
11588;SDS011;5850;51.360;12.362;2022-07-21T04:46:49;4.67;;;3.90;;
11588;SDS011;5850;51.360;12.362;2022-07-21T04:49:17;5.17;;;4.13;;
11588;SDS011;5850;51.360;12.362;2022-07-21T04:51:46;4.20;;;3.73;;
11588;SDS011;5850;51.360;12.362;2022-07-21T04:54:14;4.60;;;3.93;;
11588;SDS011;5850;51.360;12.362;2022-07-21T04:56:43;4.23;;;3.83;;
11588;SDS011;5850;51.360;12.362;2022-07-21T04:59:12;4.23;;;3.80;;
11588;SDS011;5850;51.360;12.362;2022-07-21T05:01:40;4.03;;;3.53;;
11588;SDS011;5850;51.360;12.362;2022-07-21T05:04:09;3.70;;;3.40;;
11588;SDS011;5850;51.360;12.362;2022-07-21T05:06:37;4.70;;;3.63;;
11588;SDS011;5850;51.360;12.362;2022-07-21T05:09:06;5.50;;;3.90;;
11588;SDS011;5850;51.360;12.362;2022-07-21T05:11:35;4.97;;;3.73;;
11588;SDS011;5850;51.360;12.362;2022-07-21T05:14:04;4.40;;;4.00;;
11588;SDS011;5850;51.360;12.362;2022-07-21T05:16:40;5.13;;;3.10;;
11588;SDS011;5850;51.360;12.362;2022-07-21T05:19:09;4.10;;;3.70;;
11588;SDS011;5850;51.360;12.362;2022-07-21T05:21:39;4.03;;;3.47;;
11588;SDS011;5850;51.360;12.362;2022-07-21T05:24:07;4.17;;;3.77;;
11588;SDS011;5850;51.360;12.362;2022-07-21T05:26:36;4.93;;;3.37;;
11588;SDS011;5850;51.360;12.362;2022-07-21T05:29:05;4.60;;;3.87;;
11588;SDS011;5850;51.360;12.362;2022-07-21T05:31:33;4.87;;;3.47;;
11588;SDS011;5850;51.360;12.362;2022-07-21T05:34:02;6.10;;;3.30;;
11588;SDS011;5850;51.360;12.362;2022-07-21T05:36:30;4.70;;;3.53;;
11588;SDS011;5850;51.360;12.362;2022-07-21T05:38:59;4.73;;;3.80;;
11588;SDS011;5850;51.360;12.362;2022-07-21T05:41:27;6.13;;;3.80;;
11588;SDS011;5850;51.360;12.362;2022-07-21T05:43:56;3.60;;;3.30;;
11588;SDS011;5850;51.360;12.362;2022-07-21T05:46:24;3.50;;;3.20;;
11588;SDS011;5850;51.360;12.362;2022-07-21T05:48:53;5.50;;;3.60;;
11588;SDS011;5850;51.360;12.362;2022-07-21T05:51:22;5.13;;;3.43;;
11588;SDS011;5850;51.360;12.362;2022-07-21T05:53:50;4.17;;;3.77;;
11588;SDS011;5850;51.360;12.362;2022-07-21T05:56:18;4.57;;;3.90;;
11588;SDS011;5850;51.360;12.362;2022-07-21T05:58:47;6.37;;;3.77;;
11588;SDS011;5850;51.360;12.362;2022-07-21T06:01:16;5.90;;;3.63;;
11588;SDS011;5850;51.360;12.362;2022-07-21T06:03:48;6.40;;;3.63;;
11588;SDS011;5850;51.360;12.362;2022-07-21T06:06:18;4.23;;;3.57;;
11588;SDS011;5850;51.360;12.362;2022-07-21T06:08:48;4.60;;;3.63;;
11588;SDS011;5850;51.360;12.362;2022-07-21T06:11:19;6.03;;;3.40;;
11588;SDS011;5850;51.360;12.362;2022-07-21T06:13:48;4.43;;;3.27;;
11588;SDS011;5850;51.360;12.362;2022-07-21T06:16:16;4.70;;;3.67;;
11588;SDS011;5850;51.360;12.362;2022-07-21T06:18:45;3.73;;;3.40;;
11588;SDS011;5850;51.360;12.362;2022-07-21T06:21:13;3.83;;;3.43;;
11588;SDS011;5850;51.360;12.362;2022-07-21T06:23:42;5.57;;;4.00;;
11588;SDS011;5850;51.360;12.362;2022-07-21T06:26:10;5.00;;;3.40;;
11588;SDS011;5850;51.360;12.362;2022-07-21T06:28:39;3.80;;;3.30;;
11588;SDS011;5850;51.360;12.362;2022-07-21T06:31:08;4.10;;;3.10;;
11588;SDS011;5850;51.360;12.362;2022-07-21T06:33:36;5.47;;;3.37;;
11588;SDS011;5850;51.360;12.362;2022-07-21T06:36:06;5.00;;;3.33;;
11588;SDS011;5850;51.360;12.362;2022-07-21T06:38:35;5.37;;;3.33;;
11588;SDS011;5850;51.360;12.362;2022-07-21T06:41:03;5.70;;;3.33;;
11588;SDS011;5850;51.360;12.362;2022-07-21T06:43:33;3.83;;;3.27;;
11588;SDS011;5850;51.360;12.362;2022-07-21T06:46:01;4.10;;;2.90;;
11588;SDS011;5850;51.360;12.362;2022-07-21T06:48:30;4.18;;;2.92;;
11588;SDS011;5850;51.360;12.362;2022-07-21T06:50:58;3.50;;;3.00;;
11588;SDS011;5850;51.360;12.362;2022-07-21T06:53:27;5.95;;;3.47;;
11588;SDS011;5850;51.360;12.362;2022-07-21T06:55:55;3.85;;;3.42;;
11588;SDS011;5850;51.360;12.362;2022-07-21T06:58:29;3.85;;;3.17;;
11588;SDS011;5850;51.360;12.362;2022-07-21T07:01:05;3.85;;;3.20;;
11588;SDS011;5850;51.360;12.362;2022-07-21T07:03:34;2.90;;;2.70;;
11588;SDS011;5850;51.360;12.362;2022-07-21T07:06:04;3.75;;;3.17;;
11588;SDS011;5850;51.360;12.362;2022-07-21T07:08:33;3.28;;;2.97;;
11588;SDS011;5850;51.360;12.362;2022-07-21T07:11:10;3.40;;;3.10;;
11588;SDS011;5850;51.360;12.362;2022-07-21T07:13:38;5.25;;;3.08;;
11588;SDS011;5850;51.360;12.362;2022-07-21T07:16:26;3.70;;;3.00;;
11588;SDS011;5850;51.360;12.362;2022-07-21T07:18:55;3.15;;;2.95;;
11588;SDS011;5850;51.360;12.362;2022-07-21T07:21:24;5.55;;;3.20;;
11588;SDS011;5850;51.360;12.362;2022-07-21T07:23:52;3.55;;;3.05;;
11588;SDS011;5850;51.360;12.362;2022-07-21T07:26:21;5.15;;;3.03;;
11588;SDS011;5850;51.360;12.362;2022-07-21T07:28:49;5.50;;;3.90;;
11588;SDS011;5850;51.360;12.362;2022-07-21T07:31:18;5.60;;;3.92;;
11588;SDS011;5850;51.360;12.362;2022-07-21T07:33:47;6.70;;;3.88;;
11588;SDS011;5850;51.360;12.362;2022-07-21T07:36:15;5.55;;;3.85;;
11588;SDS011;5850;51.360;12.362;2022-07-21T07:38:44;4.30;;;3.78;;
11588;SDS011;5850;51.360;12.362;2022-07-21T07:41:14;5.50;;;4.00;;
11588;SDS011;5850;51.360;12.362;2022-07-21T07:43:42;3.70;;;3.20;;
11588;SDS011;5850;51.360;12.362;2022-07-21T07:46:11;4.10;;;3.70;;
11588;SDS011;5850;51.360;12.362;2022-07-21T07:48:40;4.40;;;3.50;;
11588;SDS011;5850;51.360;12.362;2022-07-21T07:51:09;5.50;;;4.15;;
11588;SDS011;5850;51.360;12.362;2022-07-21T07:53:39;5.60;;;4.20;;
11588;SDS011;5850;51.360;12.362;2022-07-21T07:56:08;4.32;;;3.80;;
11588;SDS011;5850;51.360;12.362;2022-07-21T07:58:36;4.47;;;4.07;;
11588;SDS011;5850;51.360;12.362;2022-07-21T08:01:05;3.78;;;3.47;;
11588;SDS011;5850;51.360;12.362;2022-07-21T08:03:35;4.60;;;3.78;;
11588;SDS011;5850;51.360;12.362;2022-07-21T08:06:04;4.75;;;3.10;;
11588;SDS011;5850;51.360;12.362;2022-07-21T08:08:32;4.38;;;3.97;;
11588;SDS011;5850;51.360;12.362;2022-07-21T08:11:01;4.22;;;3.28;;
11588;SDS011;5850;51.360;12.362;2022-07-21T08:13:29;3.90;;;3.60;;
11588;SDS011;5850;51.360;12.362;2022-07-21T08:15:58;4.30;;;3.90;;
11588;SDS011;5850;51.360;12.362;2022-07-21T08:18:27;4.25;;;3.80;;
11588;SDS011;5850;51.360;12.362;2022-07-21T08:20:55;3.75;;;3.45;;
11588;SDS011;5850;51.360;12.362;2022-07-21T08:23:23;4.35;;;3.88;;
11588;SDS011;5850;51.360;12.362;2022-07-21T08:25:51;5.05;;;4.18;;
11588;SDS011;5850;51.360;12.362;2022-07-21T08:28:20;4.13;;;3.80;;
11588;SDS011;5850;51.360;12.362;2022-07-21T08:30:48;5.35;;;4.00;;
11588;SDS011;5850;51.360;12.362;2022-07-21T08:33:16;4.65;;;4.13;;
11588;SDS011;5850;51.360;12.362;2022-07-21T08:35:45;4.63;;;4.05;;
11588;SDS011;5850;51.360;12.362;2022-07-21T08:38:13;6.70;;;4.63;;
11588;SDS011;5850;51.360;12.362;2022-07-21T08:40:44;4.80;;;4.38;;
11588;SDS011;5850;51.360;12.362;2022-07-21T08:43:13;5.68;;;4.40;;
11588;SDS011;5850;51.360;12.362;2022-07-21T08:45:42;5.63;;;4.23;;
11588;SDS011;5850;51.360;12.362;2022-07-21T08:48:10;4.70;;;4.03;;
11588;SDS011;5850;51.360;12.362;2022-07-21T08:50:40;8.67;;;5.60;;
11588;SDS011;5850;51.360;12.362;2022-07-21T08:53:09;5.20;;;4.30;;
11588;SDS011;5850;51.360;12.362;2022-07-21T08:55:38;6.53;;;4.80;;
11588;SDS011;5850;51.360;12.362;2022-07-21T08:58:08;6.00;;;5.10;;
11588;SDS011;5850;51.360;12.362;2022-07-21T09:00:39;5.23;;;4.73;;
11588;SDS011;5850;51.360;12.362;2022-07-21T09:03:12;5.90;;;4.93;;
11588;SDS011;5850;51.360;12.362;2022-07-21T09:08:38;5.93;;;5.33;;
11588;SDS011;5850;51.360;12.362;2022-07-21T09:11:20;5.80;;;5.30;;
11588;SDS011;5850;51.360;12.362;2022-07-21T09:14:06;5.33;;;4.90;;
11588;SDS011;5850;51.360;12.362;2022-07-21T09:16:41;6.23;;;5.60;;
11588;SDS011;5850;51.360;12.362;2022-07-21T09:19:26;6.43;;;5.57;;
11588;SDS011;5850;51.360;12.362;2022-07-21T09:21:59;6.07;;;5.47;;
11588;SDS011;5850;51.360;12.362;2022-07-21T09:24:30;7.93;;;6.17;;
11588;SDS011;5850;51.360;12.362;2022-07-21T09:27:05;6.87;;;6.23;;
11588;SDS011;5850;51.360;12.362;2022-07-21T09:29:53;8.40;;;7.07;;
11588;SDS011;5850;51.360;12.362;2022-07-21T09:32:27;6.93;;;6.23;;
11588;SDS011;5850;51.360;12.362;2022-07-21T09:34:59;9.67;;;6.90;;
11588;SDS011;5850;51.360;12.362;2022-07-21T09:37:38;9.30;;;6.50;;
11588;SDS011;5850;51.360;12.362;2022-07-21T09:40:09;8.67;;;6.60;;
11588;SDS011;5850;51.360;12.362;2022-07-21T09:42:49;8.40;;;7.00;;
11588;SDS011;5850;51.360;12.362;2022-07-21T09:45:19;8.10;;;7.30;;
11588;SDS011;5850;51.360;12.362;2022-07-21T09:47:48;8.33;;;7.50;;
11588;SDS011;5850;51.360;12.362;2022-07-21T09:50:16;8.83;;;7.60;;
11588;SDS011;5850;51.360;12.362;2022-07-21T09:52:54;7.80;;;7.10;;
11588;SDS011;5850;51.360;12.362;2022-07-21T09:55:24;8.43;;;7.57;;
11588;SDS011;5850;51.360;12.362;2022-07-21T09:57:55;8.97;;;7.77;;
11588;SDS011;5850;51.360;12.362;2022-07-21T10:00:25;8.60;;;7.40;;
11588;SDS011;5850;51.360;12.362;2022-07-21T10:02:53;8.30;;;7.50;;
11588;SDS011;5850;51.360;12.362;2022-07-21T10:05:22;8.27;;;7.40;;
11588;SDS011;5850;51.360;12.362;2022-07-21T10:07:57;8.73;;;7.83;;
11588;SDS011;5850;51.360;12.362;2022-07-21T10:10:27;8.97;;;7.80;;
11588;SDS011;5850;51.360;12.362;2022-07-21T10:13:16;7.20;;;6.50;;
11588;SDS011;5850;51.360;12.362;2022-07-21T10:15:46;8.43;;;7.53;;
11588;SDS011;5850;51.360;12.362;2022-07-21T10:18:15;15.30;;;7.67;;
11588;SDS011;5850;51.360;12.362;2022-07-21T10:21:01;8.23;;;7.43;;
11588;SDS011;5850;51.360;12.362;2022-07-21T10:23:54;7.10;;;6.40;;
11588;SDS011;5850;51.360;12.362;2022-07-21T10:26:23;8.20;;;7.10;;
11588;SDS011;5850;51.360;12.362;2022-07-21T10:28:51;9.80;;;7.10;;
11588;SDS011;5850;51.360;12.362;2022-07-21T10:31:21;7.33;;;6.20;;
11588;SDS011;5850;51.360;12.362;2022-07-21T10:33:52;8.30;;;6.50;;
11588;SDS011;5850;51.360;12.362;2022-07-21T10:41:37;7.30;;;6.30;;
11588;SDS011;5850;51.360;12.362;2022-07-21T10:44:41;8.03;;;7.03;;
11588;SDS011;5850;51.360;12.362;2022-07-21T10:55:18;8.27;;;7.47;;
11588;SDS011;5850;51.360;12.362;2022-07-21T10:58:39;8.50;;;7.60;;
11588;SDS011;5850;51.360;12.362;2022-07-21T11:00:55;8.87;;;8.07;;
11588;SDS011;5850;51.360;12.362;2022-07-21T11:03:51;8.23;;;7.10;;
11588;SDS011;5850;51.360;12.362;2022-07-21T11:06:38;7.57;;;6.77;;
11588;SDS011;5850;51.360;12.362;2022-07-21T11:09:09;7.40;;;6.70;;
11588;SDS011;5850;51.360;12.362;2022-07-21T11:14:15;7.33;;;6.67;;
11588;SDS011;5850;51.360;12.362;2022-07-21T11:22:21;7.23;;;6.53;;
11588;SDS011;5850;51.360;12.362;2022-07-21T11:24:58;6.53;;;5.87;;
11588;SDS011;5850;51.360;12.362;2022-07-21T11:27:33;9.70;;;6.23;;
11588;SDS011;5850;51.360;12.362;2022-07-21T11:30:06;9.53;;;6.63;;
11588;SDS011;5850;51.360;12.362;2022-07-21T11:32:36;7.40;;;6.70;;
11588;SDS011;5850;51.360;12.362;2022-07-21T11:35:05;9.40;;;7.30;;
11588;SDS011;5850;51.360;12.362;2022-07-21T11:37:35;7.43;;;5.77;;
11588;SDS011;5850;51.360;12.362;2022-07-21T11:42:38;8.10;;;6.93;;
11588;SDS011;5850;51.360;12.362;2022-07-21T11:45:08;6.40;;;5.80;;
11588;SDS011;5850;51.360;12.362;2022-07-21T11:47:38;7.13;;;6.43;;
11588;SDS011;5850;51.360;12.362;2022-07-21T11:50:14;7.97;;;6.87;;
11588;SDS011;5850;51.360;12.362;2022-07-21T11:52:43;7.30;;;6.47;;
11588;SDS011;5850;51.360;12.362;2022-07-21T11:55:13;8.63;;;7.60;;
11588;SDS011;5850;51.360;12.362;2022-07-21T11:57:45;8.27;;;7.47;;
11588;SDS011;5850;51.360;12.362;2022-07-21T12:00:14;8.70;;;7.87;;
11588;SDS011;5850;51.360;12.362;2022-07-21T12:02:47;8.97;;;8.07;;
11588;SDS011;5850;51.360;12.362;2022-07-21T12:05:16;9.30;;;8.20;;
11588;SDS011;5850;51.360;12.362;2022-07-21T12:07:48;11.63;;;8.97;;
11588;SDS011;5850;51.360;12.362;2022-07-21T12:10:22;10.30;;;8.27;;
11588;SDS011;5850;51.360;12.362;2022-07-21T12:12:56;11.33;;;9.73;;
11588;SDS011;5850;51.360;12.362;2022-07-21T12:15:32;10.27;;;9.13;;
11588;SDS011;5850;51.360;12.362;2022-07-21T12:18:03;9.90;;;8.67;;
11588;SDS011;5850;51.360;12.362;2022-07-21T12:20:33;9.70;;;8.40;;
11588;SDS011;5850;51.360;12.362;2022-07-21T12:25:54;9.03;;;8.03;;
11588;SDS011;5850;51.360;12.362;2022-07-21T12:31:19;8.80;;;8.00;;
11588;SDS011;5850;51.360;12.362;2022-07-21T12:33:51;9.93;;;8.73;;
11588;SDS011;5850;51.360;12.362;2022-07-21T12:36:44;9.40;;;8.60;;
11588;SDS011;5850;51.360;12.362;2022-07-21T12:42:11;10.47;;;9.27;;
11588;SDS011;5850;51.360;12.362;2022-07-21T12:44:58;10.37;;;8.07;;
11588;SDS011;5850;51.360;12.362;2022-07-21T12:47:27;10.97;;;9.17;;
11588;SDS011;5850;51.360;12.362;2022-07-21T12:50:00;10.03;;;9.03;;
11588;SDS011;5850;51.360;12.362;2022-07-21T12:52:49;9.53;;;8.60;;
11588;SDS011;5850;51.360;12.362;2022-07-21T12:55:17;14.67;;;8.40;;
11588;SDS011;5850;51.360;12.362;2022-07-21T12:57:45;8.23;;;7.53;;
11588;SDS011;5850;51.360;12.362;2022-07-21T13:00:14;9.67;;;8.73;;
11588;SDS011;5850;51.360;12.362;2022-07-21T13:02:53;11.00;;;8.87;;
11588;SDS011;5850;51.360;12.362;2022-07-21T13:05:23;18.60;;;9.47;;
11588;SDS011;5850;51.360;12.362;2022-07-21T13:07:53;13.37;;;8.60;;
11588;SDS011;5850;51.360;12.362;2022-07-21T13:10:21;9.30;;;8.33;;
11588;SDS011;5850;51.360;12.362;2022-07-21T13:12:49;9.40;;;8.50;;
11588;SDS011;5850;51.360;12.362;2022-07-21T13:15:18;9.63;;;8.77;;
11588;SDS011;5850;51.360;12.362;2022-07-21T13:17:46;9.67;;;8.73;;
11588;SDS011;5850;51.360;12.362;2022-07-21T13:20:14;11.37;;;10.17;;
11588;SDS011;5850;51.360;12.362;2022-07-21T13:22:43;11.87;;;9.00;;
11588;SDS011;5850;51.360;12.362;2022-07-21T13:25:12;10.10;;;8.77;;
11588;SDS011;5850;51.360;12.362;2022-07-21T13:27:41;9.80;;;8.90;;
11588;SDS011;5850;51.360;12.362;2022-07-21T13:30:13;12.77;;;9.43;;
11588;SDS011;5850;51.360;12.362;2022-07-21T13:32:43;9.30;;;8.43;;
11588;SDS011;5850;51.360;12.362;2022-07-21T13:35:11;9.23;;;8.37;;
11588;SDS011;5850;51.360;12.362;2022-07-21T13:37:53;9.97;;;8.93;;
11588;SDS011;5850;51.360;12.362;2022-07-21T13:40:26;9.07;;;8.17;;
11588;SDS011;5850;51.360;12.362;2022-07-21T13:43:15;9.40;;;8.10;;
11588;SDS011;5850;51.360;12.362;2022-07-21T13:46:03;9.60;;;8.70;;
11588;SDS011;5850;51.360;12.362;2022-07-21T13:48:32;8.83;;;7.93;;
11588;SDS011;5850;51.360;12.362;2022-07-21T13:51:09;11.00;;;9.07;;
11588;SDS011;5850;51.360;12.362;2022-07-21T13:53:38;10.07;;;8.90;;
11588;SDS011;5850;51.360;12.362;2022-07-21T13:56:07;9.13;;;8.33;;
11588;SDS011;5850;51.360;12.362;2022-07-21T13:58:36;9.50;;;8.50;;
11588;SDS011;5850;51.360;12.362;2022-07-21T14:01:05;9.60;;;8.70;;
11588;SDS011;5850;51.360;12.362;2022-07-21T14:03:35;10.50;;;8.93;;
11588;SDS011;5850;51.360;12.362;2022-07-21T14:06:05;9.13;;;8.23;;
11588;SDS011;5850;51.360;12.362;2022-07-21T14:08:33;13.70;;;8.33;;
11588;SDS011;5850;51.360;12.362;2022-07-21T14:11:02;9.50;;;8.60;;
11588;SDS011;5850;51.360;12.362;2022-07-21T14:13:31;8.80;;;8.00;;
11588;SDS011;5850;51.360;12.362;2022-07-21T14:16:00;9.47;;;8.43;;
11588;SDS011;5850;51.360;12.362;2022-07-21T14:18:29;9.73;;;8.70;;
11588;SDS011;5850;51.360;12.362;2022-07-21T14:20:58;9.70;;;8.80;;
11588;SDS011;5850;51.360;12.362;2022-07-21T14:23:28;11.43;;;9.10;;
11588;SDS011;5850;51.360;12.362;2022-07-21T14:25:57;9.40;;;8.50;;
11588;SDS011;5850;51.360;12.362;2022-07-21T14:28:27;10.33;;;8.50;;
11588;SDS011;5850;51.360;12.362;2022-07-21T14:30:55;9.80;;;8.80;;
11588;SDS011;5850;51.360;12.362;2022-07-21T14:33:26;13.00;;;8.20;;
11588;SDS011;5850;51.360;12.362;2022-07-21T14:35:56;8.67;;;7.83;;
11588;SDS011;5850;51.360;12.362;2022-07-21T14:38:25;8.73;;;7.30;;
11588;SDS011;5850;51.360;12.362;2022-07-21T14:40:53;10.53;;;8.10;;
11588;SDS011;5850;51.360;12.362;2022-07-21T14:43:22;9.32;;;8.20;;
11588;SDS011;5850;51.360;12.362;2022-07-21T14:45:50;9.90;;;7.77;;
11588;SDS011;5850;51.360;12.362;2022-07-21T14:48:18;8.20;;;7.40;;
11588;SDS011;5850;51.360;12.362;2022-07-21T14:50:49;10.90;;;7.73;;
11588;SDS011;5850;51.360;12.362;2022-07-21T14:53:18;8.10;;;7.30;;
11588;SDS011;5850;51.360;12.362;2022-07-21T14:55:46;6.72;;;6.07;;
11588;SDS011;5850;51.360;12.362;2022-07-21T14:58:15;5.43;;;4.93;;
11588;SDS011;5850;51.360;12.362;2022-07-21T15:00:44;5.00;;;4.50;;
11588;SDS011;5850;51.360;12.362;2022-07-21T15:03:12;5.40;;;4.90;;
11588;SDS011;5850;51.360;12.362;2022-07-21T15:05:41;5.65;;;4.50;;
11588;SDS011;5850;51.360;12.362;2022-07-21T15:08:11;5.95;;;5.35;;
11588;SDS011;5850;51.360;12.362;2022-07-21T15:10:41;3.97;;;3.28;;
11588;SDS011;5850;51.360;12.362;2022-07-21T15:13:09;3.30;;;3.10;;
11588;SDS011;5850;51.360;12.362;2022-07-21T15:15:39;3.30;;;3.00;;
11588;SDS011;5850;51.360;12.362;2022-07-21T15:18:07;4.32;;;2.90;;
11588;SDS011;5850;51.360;12.362;2022-07-21T15:20:36;4.05;;;3.17;;
11588;SDS011;5850;51.360;12.362;2022-07-21T15:23:04;3.83;;;3.42;;
11588;SDS011;5850;51.360;12.362;2022-07-21T15:25:33;6.07;;;4.00;;
11588;SDS011;5850;51.360;12.362;2022-07-21T15:28:01;4.15;;;3.15;;
11588;SDS011;5850;51.360;12.362;2022-07-21T15:30:30;3.30;;;2.80;;
11588;SDS011;5850;51.360;12.362;2022-07-21T15:33:00;3.55;;;3.10;;
11588;SDS011;5850;51.360;12.362;2022-07-21T15:35:29;3.33;;;2.95;;
11588;SDS011;5850;51.360;12.362;2022-07-21T15:37:57;3.53;;;3.22;;
11588;SDS011;5850;51.360;12.362;2022-07-21T15:40:26;4.10;;;3.00;;
11588;SDS011;5850;51.360;12.362;2022-07-21T15:42:55;3.22;;;2.92;;